Time;durP1;ratioP1;P1;durP2;ratioP2;P2;SDS_P1;SDS_P2;PMS_P1;PMS_P2;Temp;Humidity;BMP_temperature;BMP_pressure;BME280_temperature;BME280_humidity;BME280_pressure;Samples;Min_cycle;Max_cycle;Signal;HPM_P1;HPM_P2
2023/03/26 00:01:35;;;;;;;12.57;2.90;;;9.40;99.90;;;;;;5083699;28;20040;-77
2023/03/26 00:04:02;;;;;;;14.93;3.13;;;9.30;99.90;;;;;;5082617;28;20043;-73
2023/03/26 00:07:08;;;;;;;17.23;2.80;;;9.80;99.90;;;;;;5095879;28;20099;-74
2023/03/26 00:09:36;;;;;;;;;;;9.60;99.90;;;;;;5017044;28;20033;-74
2023/03/26 00:12:03;;;;;;;8.20;2.20;;;9.60;99.90;;;;;;5004178;28;19940;-72
2023/03/26 00:14:29;;;;;;;15.00;3.42;;;9.50;99.90;;;;;;5055717;28;20070;-73
2023/03/26 00:16:55;;;;;;;14.35;3.28;;;9.40;99.90;;;;;;5140135;27;20067;-74
2023/03/26 00:19:21;;;;;;;12.98;2.63;;;9.20;99.90;;;;;;5092906;28;20039;-75
2023/03/26 00:21:47;;;;;;;16.02;3.08;;;9.60;99.90;;;;;;5079456;28;20024;-74
2023/03/26 00:24:16;;;;;;;20.10;4.22;;;9.50;99.90;;;;;;5095352;28;20380;-74
2023/03/26 00:26:42;;;;;;;13.68;2.75;;;9.20;99.90;;;;;;5091243;28;20043;-72
2023/03/26 00:29:43;;;;;;;15.07;3.05;;;9.40;99.90;;;;;;5077119;28;20028;-73
2023/03/26 00:32:09;;;;;;;18.83;3.33;;;9.60;99.90;;;;;;5057163;28;20383;-74
2023/03/26 00:34:35;;;;;;;16.73;2.80;;;9.70;99.90;;;;;;5095564;28;20285;-75
2023/03/26 00:37:01;;;;;;;16.58;3.53;;;9.10;99.90;;;;;;5063319;28;20036;-73
2023/03/26 00:39:28;;;;;;;15.65;3.40;;;9.70;99.90;;;;;;5081375;28;20210;-73
2023/03/26 00:41:54;;;;;;;17.67;3.15;;;9.60;99.90;;;;;;5091944;28;20049;-75
2023/03/26 00:44:20;;;;;;;10.98;2.45;;;9.40;99.90;;;;;;5126145;27;20244;-75
2023/03/26 00:47:18;;;;;;;12.35;2.80;;;9.30;99.90;;;;;;5097707;28;20133;-74
2023/03/26 00:49:47;;;;;;;14.40;2.70;;;9.40;99.90;;;;;;5035489;28;20032;-75
2023/03/26 00:52:37;;;;;;;14.98;3.03;;;8.80;99.90;;;;;;5080323;28;20207;-76
2023/03/26 00:55:04;;;;;;;12.88;2.70;;;9.20;99.90;;;;;;5081800;28;20031;-77
2023/03/26 00:57:51;;;;;;;16.67;3.40;;;8.00;99.90;;;;;;5075625;28;20032;-75
2023/03/26 01:00:49;;;;;;;10.35;2.80;;;10.20;99.90;;;;;;5078919;28;20042;-76
2023/03/26 01:03:20;;;;;;;12.98;2.95;;;8.30;99.90;;;;;;5092949;28;20021;-75
2023/03/26 01:09:41;;;;;;;9.43;2.17;;;9.40;99.90;;;;;;5067409;28;20047;-74
2023/03/26 01:12:12;;;;;;;12.15;2.90;;;8.90;99.90;;;;;;5079445;28;20044;-75
2023/03/26 01:14:38;;;;;;;15.70;2.70;;;8.80;99.90;;;;;;5080171;28;20039;-72
2023/03/26 01:17:06;;;;;;;15.10;3.65;;;8.90;99.90;;;;;;5079168;28;20322;-74
2023/03/26 01:20:00;;;;;;;15.40;2.58;;;9.00;99.90;;;;;;5084990;28;20031;-73
2023/03/26 01:22:26;;;;;;;14.70;3.13;;;8.90;99.90;;;;;;5099301;28;20032;-75
2023/03/26 01:25:02;;;;;;;;;;;;;;;;;;;;;
2023/03/26 01:27:49;;;;;;;14.93;2.50;;;9.20;99.90;;;;;;5055077;28;20125;-73
2023/03/26 01:30:37;;;;;;;12.23;2.53;;;9.10;99.90;;;;;;5080808;28;20330;-74
2023/03/26 01:33:12;;;;;;;15.20;2.70;;;8.80;99.90;;;;;;5093943;28;20040;-74
2023/03/26 01:35:44;;;;;;;11.38;2.88;;;9.20;99.90;;;;;;5092299;28;20040;-76
2023/03/26 01:38:37;;;;;;;17.55;2.85;;;9.00;99.90;;;;;;5082324;28;20051;-72
2023/03/26 01:41:16;;;;;;;13.00;2.40;;;9.00;99.90;;;;;;5092048;28;20040;-74
2023/03/26 01:44:20;;;;;;;11.40;2.58;;;9.00;99.90;;;;;;5096271;28;20036;-74
2023/03/26 01:46:47;;;;;;;13.18;2.45;;;8.80;99.90;;;;;;5042871;28;20048;-76
2023/03/26 01:49:20;;;;;;;15.52;3.65;;;8.80;99.90;;;;;;5059829;28;20310;-75
2023/03/26 01:51:46;;;;;;;15.52;3.17;;;8.60;99.90;;;;;;5064504;28;20046;-75
2023/03/26 01:54:18;;;;;;;10.88;2.33;;;8.60;99.90;;;;;;5082637;28;20107;-74
2023/03/26 01:57:18;;;;;;;14.48;3.00;;;8.70;99.90;;;;;;5097323;28;20055;-73
2023/03/26 02:00:11;;;;;;;13.18;2.70;;;8.80;99.90;;;;;;5076706;28;20024;-78
2023/03/26 02:02:58;;;;;;;15.55;2.80;;;8.80;99.90;;;;;;5095511;28;20063;-72
2023/03/26 02:05:36;;;;;;;13.30;2.50;;;8.40;99.90;;;;;;5095541;28;20024;-73
2023/03/26 02:08:21;;;;;;;14.57;2.80;;;8.40;99.90;;;;;;5128042;28;20020;-74
2023/03/26 02:10:54;;;;;;;17.70;3.45;;;8.80;99.90;;;;;;5078720;28;20031;-74
2023/03/26 02:13:20;;;;;;;15.68;2.60;;;8.50;99.90;;;;;;5095850;28;20218;-72
2023/03/26 02:16:20;;;;;;;15.88;2.72;;;8.80;99.90;;;;;;5098579;28;20031;-74
2023/03/26 02:18:54;;;;;;;13.73;2.50;;;8.60;99.90;;;;;;5079436;28;20055;-78
2023/03/26 02:21:24;;;;;;;19.55;2.65;;;8.50;99.90;;;;;;5099035;28;20472;-76
2023/03/26 02:24:01;;;;;;;18.08;2.42;;;8.60;99.90;;;;;;5098756;28;20222;-77
2023/03/26 02:26:29;;;;;;;9.35;2.67;;;8.70;99.90;;;;;;5099952;28;20039;-73
2023/03/26 02:28:56;;;;;;;12.75;2.42;;;8.60;99.90;;;;;;5081373;28;20048;-74
2023/03/26 02:34:23;;;;;;;14.98;3.00;;;8.30;99.90;;;;;;5078898;28;20159;-74
2023/03/26 02:36:49;;;;;;;15.63;3.33;;;8.80;99.90;;;;;;5055724;28;20036;-73
2023/03/26 02:39:14;;;;;;;12.65;2.53;;;8.90;99.90;;;;;;5129926;27;20229;-73
2023/03/26 02:41:40;;;;;;;17.52;2.97;;;8.80;99.90;;;;;;5064951;28;20091;-74
2023/03/26 02:44:06;;;;;;;10.05;2.60;;;8.80;99.90;;;;;;5095799;28;20032;-71
2023/03/26 02:46:33;;;;;;;16.35;2.60;;;8.80;99.90;;;;;;5084717;28;20249;-74
2023/03/26 02:48:59;;;;;;;14.48;2.83;;;8.50;99.90;;;;;;5086202;28;20102;-70
2023/03/26 02:51:24;;;;;;;18.95;3.10;;;8.90;99.90;;;;;;5104250;28;20036;-74
2023/03/26 02:53:52;;;;;;;15.15;3.05;;;8.80;99.90;;;;;;5108171;28;20031;-71
2023/03/26 02:56:18;;;;;;;15.90;2.25;;;8.60;99.90;;;;;;5104632;28;20222;-74
2023/03/26 02:58:45;;;;;;;9.55;2.30;;;8.80;99.90;;;;;;5105537;28;20107;-73
2023/03/26 03:01:11;;;;;;;11.82;2.35;;;8.60;99.90;;;;;;5105422;28;20086;-73
2023/03/26 03:03:37;;;;;;;15.55;2.33;;;8.50;99.90;;;;;;5084873;28;20027;-71
2023/03/26 03:06:03;;;;;;;13.15;2.88;;;8.50;99.90;;;;;;5119947;28;20039;-73
2023/03/26 03:08:29;;;;;;;11.55;2.90;;;8.60;99.90;;;;;;5069673;28;20035;-70
2023/03/26 03:11:00;;;;;;;15.75;2.85;;;8.50;99.90;;;;;;5088288;28;20073;-74
2023/03/26 03:13:26;;;;;;;11.60;2.50;;;8.80;99.90;;;;;;5102435;28;20034;-75
2023/03/26 03:15:52;;;;;;;15.55;2.45;;;8.60;99.90;;;;;;5087838;28;20050;-74
2023/03/26 03:18:18;;;;;;;11.40;2.33;;;8.90;99.90;;;;;;5072834;28;20314;-70
2023/03/26 03:20:44;;;;;;;11.15;2.45;;;8.60;99.90;;;;;;5082537;28;20027;-73
2023/03/26 03:23:10;;;;;;;18.20;3.72;;;8.50;99.90;;;;;;5109560;28;20027;-72
2023/03/26 03:25:39;;;;;;;15.05;3.42;;;8.80;99.90;;;;;;5084858;28;20277;-73
2023/03/26 03:28:06;;;;;;;13.77;2.60;;;8.80;99.90;;;;;;5089816;28;20031;-75
2023/03/26 03:30:32;;;;;;;12.85;2.80;;;8.80;99.90;;;;;;5088192;28;20046;-73
2023/03/26 03:33:23;;;;;;;10.93;3.63;;;8.50;99.90;;;;;;5087721;28;20031;-74
2023/03/26 03:35:50;;;;;;;19.15;2.90;;;8.60;99.90;;;;;;5087832;28;20047;-74
2023/03/26 03:38:16;;;;;;;12.82;2.60;;;8.90;99.90;;;;;;5085293;28;20027;-73
2023/03/26 03:40:49;;;;;;;9.63;2.00;;;8.90;99.90;;;;;;5082810;28;20091;-72
2023/03/26 03:43:14;;;;;;;13.63;3.08;;;8.70;99.90;;;;;;5088628;28;20322;-72
2023/03/26 03:45:40;;;;;;;14.77;2.80;;;8.60;99.90;;;;;;5103673;28;20042;-74
2023/03/26 03:48:06;;;;;;;15.20;3.50;;;8.50;99.90;;;;;;5071149;28;20265;-74
2023/03/26 03:50:31;;;;;;;15.93;2.97;;;8.80;99.90;;;;;;5097947;28;20123;-73
2023/03/26 03:52:58;;;;;;;12.32;2.80;;;8.80;99.90;;;;;;5107236;27;20027;-72
2023/03/26 03:55:26;;;;;;;12.95;2.40;;;8.70;99.90;;;;;;5085330;28;20035;-71
2023/03/26 03:57:53;;;;;;;13.18;2.47;;;8.50;99.90;;;;;;5103691;28;20051;-75
2023/03/26 04:00:24;;;;;;;14.63;2.75;;;8.70;99.90;;;;;;5079434;28;20026;-74
2023/03/26 04:02:53;;;;;;;13.90;2.72;;;8.20;99.90;;;;;;5069912;28;20075;-73
2023/03/26 04:05:19;;;;;;;10.05;2.63;;;8.40;99.90;;;;;;5077338;28;20066;-75
2023/03/26 04:10:51;;;;;;;11.38;2.67;;;7.70;99.90;;;;;;5079390;28;20075;-75
2023/03/26 04:13:51;;;;;;;11.52;2.10;;;8.00;99.90;;;;;;5081920;28;20032;-78
2023/03/26 04:16:25;;;;;;;13.27;2.20;;;7.90;99.90;;;;;;5081665;28;20035;-73
2023/03/26 04:19:02;;;;;;;16.67;2.50;;;8.10;99.90;;;;;;5082519;28;20032;-72
2023/03/26 04:21:32;;;;;;;15.23;2.58;;;8.30;99.90;;;;;;5098192;28;20076;-73
2023/03/26 04:24:00;;;;;;;12.38;3.03;;;8.30;99.90;;;;;;5071396;28;20028;-72
2023/03/26 04:26:29;;;;;;;12.75;2.63;;;8.20;99.90;;;;;;5103817;28;20036;-75
2023/03/26 04:29:02;;;;;;;12.38;2.88;;;7.90;99.90;;;;;;5092915;28;20074;-75
2023/03/26 04:31:29;;;;;;;15.40;2.90;;;8.20;99.90;;;;;;5086288;28;20051;-76
2023/03/26 04:34:12;;;;;;;14.75;2.88;;;8.10;99.90;;;;;;5102507;28;20113;-72
2023/03/26 04:36:41;;;;;;;16.25;2.67;;;8.20;99.90;;;;;;5080590;28;20132;-71
2023/03/26 04:39:10;;;;;;;13.38;3.05;;;8.30;99.90;;;;;;5098814;28;20035;-76
2023/03/26 04:41:36;;;;;;;12.88;2.60;;;8.30;99.90;;;;;;5103597;28;20291;-73
2023/03/26 04:44:02;;;;;;;17.10;3.28;;;8.20;99.90;;;;;;5062571;28;20016;-75
2023/03/26 04:46:32;;;;;;;10.80;2.90;;;8.30;99.90;;;;;;5099135;28;20027;-74
2023/03/26 04:48:58;;;;;;;17.00;2.78;;;8.40;99.90;;;;;;5080848;28;20499;-74
2023/03/26 04:51:37;;;;;;;11.23;2.88;;;8.40;99.90;;;;;;5100256;28;20043;-77
2023/03/26 04:54:07;;;;;;;17.77;4.25;;;8.40;99.90;;;;;;5103491;28;20035;-73
2023/03/26 04:56:57;;;;;;;12.32;2.53;;;8.40;99.90;;;;;;5102613;28;20040;-72
2023/03/26 04:59:30;;;;;;;14.05;2.63;;;8.10;99.90;;;;;;5078336;28;20050;-75
2023/03/26 05:01:58;;;;;;;12.50;2.80;;;8.10;99.90;;;;;;5083583;28;20031;-73
2023/03/26 05:04:29;;;;;;;14.73;3.03;;;8.20;99.90;;;;;;5084900;28;20024;-72
2023/03/26 05:06:57;;;;;;;12.73;2.60;;;8.40;99.90;;;;;;5100872;28;20049;-73
2023/03/26 05:09:26;;;;;;;16.05;3.35;;;8.20;99.90;;;;;;5094229;28;20686;-72
2023/03/26 05:11:56;;;;;;;19.10;2.67;;;8.10;99.90;;;;;;5084657;28;20062;-75
2023/03/26 05:14:21;;;;;;;18.55;3.03;;;8.00;99.90;;;;;;5079548;28;20122;-75
2023/03/26 05:16:49;;;;;;;15.35;3.38;;;8.30;99.90;;;;;;5082104;28;20723;-77
2023/03/26 05:19:15;;;;;;;12.07;2.95;;;8.00;99.90;;;;;;5096963;28;20028;-72
2023/03/26 05:21:40;;;;;;;11.73;2.72;;;8.00;99.90;;;;;;5083912;28;20035;-74
2023/03/26 05:24:06;;;;;;;12.20;2.80;;;8.20;99.90;;;;;;5087768;28;20214;-77
2023/03/26 05:26:33;;;;;;;13.98;2.88;;;8.10;99.90;;;;;;5119780;28;20076;-74
2023/03/26 05:28:59;;;;;;;9.05;2.88;;;8.00;99.90;;;;;;5100646;28;20043;-75
2023/03/26 05:31:29;;;;;;;12.98;2.55;;;7.90;99.90;;;;;;5079723;28;20026;-73
2023/03/26 05:33:55;;;;;;;9.15;2.28;;;8.00;99.90;;;;;;5100660;28;20043;-76
2023/03/26 05:36:22;;;;;;;15.02;2.85;;;7.90;99.90;;;;;;5099339;28;20028;-77
2023/03/26 05:38:48;;;;;;;22.02;3.30;;;7.90;99.90;;;;;;5103540;28;20077;-75
2023/03/26 05:41:15;;;;;;;11.57;2.65;;;7.70;99.90;;;;;;5097992;28;20343;-70
2023/03/26 05:43:43;;;;;;;16.00;3.65;;;8.00;99.90;;;;;;5101680;28;20478;-76
2023/03/26 05:46:45;;;;;;;15.68;2.47;;;8.00;99.90;;;;;;5096594;28;20123;-74
2023/03/26 05:49:10;;;;;;;13.73;3.15;;;8.00;99.90;;;;;;4988982;28;20058;-72
2023/03/26 05:51:36;;;;;;;14.20;2.85;;;7.90;99.90;;;;;;5096900;28;20045;-73
2023/03/26 05:54:02;;;;;;;15.07;2.63;;;8.00;99.90;;;;;;5085450;28;20080;-74
2023/03/26 05:56:28;;;;;;;14.68;2.65;;;8.10;99.90;;;;;;5094524;28;20063;-72
2023/03/26 05:58:55;;;;;;;10.63;2.67;;;8.10;99.90;;;;;;5101587;28;20028;-74
2023/03/26 06:01:21;;;;;;;13.45;3.28;;;7.90;99.90;;;;;;5083608;28;20031;-74
2023/03/26 06:03:47;;;;;;;15.95;2.83;;;7.90;99.90;;;;;;5067575;28;20027;-76
2023/03/26 06:06:19;;;;;;;15.07;2.60;;;7.90;99.90;;;;;;5098447;28;20493;-74
2023/03/26 06:08:50;;;;;;;19.60;3.45;;;8.20;99.90;;;;;;5099422;28;20028;-76
2023/03/26 06:11:17;;;;;;;12.73;2.42;;;8.20;99.90;;;;;;5080396;28;20099;-73
2023/03/26 06:13:44;;;;;;;14.57;2.47;;;8.00;99.90;;;;;;5078503;28;20024;-76
2023/03/26 06:16:11;;;;;;;12.43;2.80;;;8.20;99.90;;;;;;5096785;28;20032;-76
2023/03/26 06:18:38;;;;;;;15.85;2.30;;;8.20;99.90;;;;;;5083567;28;20040;-74
2023/03/26 06:21:05;;;;;;;14.50;2.28;;;8.40;99.90;;;;;;5082946;28;20031;-74
2023/03/26 06:23:31;;;;;;;10.27;2.65;;;8.10;99.90;;;;;;5063195;28;20063;-76
2023/03/26 06:25:57;;;;;;;13.32;3.08;;;8.30;99.90;;;;;;5102038;28;20398;-71
2023/03/26 06:28:23;;;;;;;16.55;3.28;;;8.20;99.90;;;;;;5097518;28;20044;-73
2023/03/26 06:30:50;;;;;;;11.32;2.10;;;8.30;99.90;;;;;;5072173;28;20384;-73
2023/03/26 06:33:29;;;;;;;15.75;3.17;;;8.20;99.90;;;;;;5088393;28;20097;-74
2023/03/26 06:35:55;;;;;;;13.27;2.47;;;8.30;99.90;;;;;;5065028;28;20039;-74
2023/03/26 06:38:20;;;;;;;13.55;2.78;;;8.30;99.90;;;;;;5098335;28;20088;-76
2023/03/26 06:40:46;;;;;;;11.65;3.05;;;8.30;99.90;;;;;;5071851;28;20070;-75
2023/03/26 06:43:12;;;;;;;13.95;2.22;;;8.40;99.90;;;;;;5093657;28;20051;-73
2023/03/26 06:45:38;;;;;;;21.95;2.90;;;8.20;99.90;;;;;;5115113;28;20099;-72
2023/03/26 06:48:04;;;;;;;14.57;2.58;;;8.20;99.90;;;;;;5095174;28;20044;-70
2023/03/26 06:50:31;;;;;;;13.85;2.70;;;8.30;99.90;;;;;;5096565;28;20075;-72
2023/03/26 06:52:57;;;;;;;10.13;2.40;;;8.40;99.90;;;;;;5079746;28;20229;-73
2023/03/26 06:55:23;;;;;;;16.77;3.35;;;8.40;99.90;;;;;;5080404;28;20031;-76
2023/03/26 06:57:54;;;;;;;11.38;2.20;;;8.40;99.90;;;;;;5101820;28;20058;-77
2023/03/26 07:00:20;;;;;;;13.02;2.88;;;8.60;99.90;;;;;;5079439;28;20400;-72
2023/03/26 07:02:46;;;;;;;12.38;2.60;;;8.50;99.90;;;;;;5083199;28;20028;-71
2023/03/26 07:05:13;;;;;;;12.02;2.90;;;8.50;99.90;;;;;;5078736;28;20035;-72
2023/03/26 07:07:39;;;;;;;14.10;2.63;;;8.60;99.90;;;;;;5100252;28;20237;-71
2023/03/26 07:10:08;;;;;;;14.35;2.47;;;8.50;99.90;;;;;;5087583;28;20352;-72
2023/03/26 07:12:34;;;;;;;15.18;2.65;;;8.60;99.90;;;;;;5079743;28;20039;-75
2023/03/26 07:15:01;;;;;;;10.38;2.20;;;8.60;99.90;;;;;;5079947;28;20043;-75
2023/03/26 07:17:27;;;;;;;15.48;2.90;;;8.70;99.90;;;;;;5072108;28;20069;-72
2023/03/26 07:19:53;;;;;;;13.02;2.50;;;8.60;99.90;;;;;;5104190;28;20027;-71
2023/03/26 07:22:22;;;;;;;15.27;3.13;;;8.70;99.90;;;;;;5103959;27;20027;-71
2023/03/26 07:24:50;;;;;;;11.70;2.65;;;8.60;99.90;;;;;;5084841;28;20090;-73
2023/03/26 07:27:25;;;;;;;10.40;1.83;;;8.80;99.90;;;;;;5069748;28;20036;-76
2023/03/26 07:30:05;;;;;;;13.10;2.55;;;8.60;99.90;;;;;;5087106;28;20629;-71
2023/03/26 07:32:42;;;;;;;13.23;2.58;;;8.70;99.90;;;;;;5103972;28;20106;-73
2023/03/26 07:35:25;;;;;;;13.75;2.85;;;8.70;99.90;;;;;;5102905;28;20060;-75
2023/03/26 07:38:25;;;;;;;8.65;2.60;;;8.80;99.90;;;;;;5104665;28;20114;-74
2023/03/26 07:41:12;;;;;;;11.52;2.53;;;8.80;99.90;;;;;;5101294;27;20371;-73
2023/03/26 07:43:53;;;;;;;15.32;3.03;;;8.90;99.90;;;;;;5076532;28;20028;-75
2023/03/26 07:46:24;;;;;;;11.38;2.72;;;8.90;99.90;;;;;;5096696;28;20027;-73
2023/03/26 07:48:52;;;;;;;11.68;2.80;;;8.80;99.90;;;;;;5099151;28;20061;-75
2023/03/26 07:51:19;;;;;;;11.02;2.38;;;8.90;99.90;;;;;;5067407;28;20063;-72
2023/03/26 07:53:50;;;;;;;12.75;2.17;;;8.90;99.90;;;;;;5069371;28;20039;-74
2023/03/26 07:56:54;;;;;;;14.18;2.60;;;8.60;99.90;;;;;;5086397;28;20036;-72
2023/03/26 07:59:35;;;;;;;9.15;1.83;;;8.80;99.90;;;;;;5092914;28;20203;-74
2023/03/26 08:02:49;;;;;;;8.55;2.50;;;8.80;99.90;;;;;;5091000;28;20401;-73
2023/03/26 08:05:49;;;;;;;9.80;2.10;;;8.80;99.90;;;;;;5089085;28;20358;-76
2023/03/26 08:08:20;;;;;;;;;;;8.80;99.90;;;;;;5071708;28;20121;-75
2023/03/26 08:11:07;;;;;;;8.50;2.42;;;9.00;99.90;;;;;;5046324;28;19984;-73
2023/03/26 08:13:51;;;;;;;12.32;2.58;;;9.20;99.90;;;;;;5065514;28;20093;-73
2023/03/26 08:16:27;;;;;;;8.52;1.80;;;9.20;99.90;;;;;;5053524;28;20072;-76
2023/03/26 08:19:09;;;;;;;9.75;1.83;;;9.20;99.90;;;;;;5062233;28;20466;-75
2023/03/26 08:25:32;;;;;;;7.47;1.80;;;9.40;99.90;;;;;;5005443;28;20033;-74
2023/03/26 08:28:40;;;;;;;11.70;2.25;;;8.50;99.90;;;;;;5051525;28;20258;-73
2023/03/26 08:31:10;;;;;;;13.60;1.92;;;9.70;99.90;;;;;;5054247;28;20351;-74
2023/03/26 08:33:54;;;;;;;9.15;1.73;;;9.40;99.90;;;;;;5059016;28;20028;-73
2023/03/26 08:36:22;;;;;;;9.38;1.92;;;9.50;99.90;;;;;;5065996;28;20054;-74
2023/03/26 08:39:58;;;;;;;6.20;1.92;;;9.70;99.90;;;;;;5067264;28;20032;-72
2023/03/26 08:42:33;;;;;;;10.00;2.35;;;9.30;99.90;;;;;;5094801;28;20101;-73
2023/03/26 08:45:14;;;;;;;9.40;2.00;;;9.20;99.90;;;;;;5089682;28;20056;-73
2023/03/26 08:47:43;;;;;;;12.02;1.80;;;9.40;99.90;;;;;;5100488;28;20250;-72
2023/03/26 08:50:24;;;;;;;9.82;2.35;;;9.60;99.90;;;;;;5080203;28;20047;-73
2023/03/26 08:53:23;;;;;;;6.65;1.60;;;10.00;99.90;;;;;;5086151;28;20047;-74
2023/03/26 08:55:57;;;;;;;8.70;1.88;;;10.50;99.90;;;;;;5098194;27;20067;-72
2023/03/26 08:58:39;;;;;;;11.10;2.25;;;10.70;99.90;;;;;;5092738;28;20067;-76
2023/03/26 09:01:44;;;;;;;8.25;2.20;;;10.90;99.90;;;;;;5076677;28;20091;-73
2023/03/26 09:04:26;;;;;;;8.20;1.55;;;10.70;99.90;;;;;;5074787;28;20365;-74
2023/03/26 09:07:29;;;;;;;18.38;2.28;;;11.10;99.90;;;;;;5075789;28;20243;-71
2023/03/26 09:10:16;;;;;;;6.30;1.77;;;10.50;99.90;;;;;;5084450;28;20031;-72
2023/03/26 09:12:51;;;;;;;11.48;2.35;;;10.90;99.90;;;;;;5114113;28;20070;-72
2023/03/26 09:15:35;;;;;;;;;;;10.60;99.90;;;;;;5095131;28;20042;-72
2023/03/26 09:18:30;;;;;;;6.70;2.22;;;11.20;99.90;;;;;;5131041;27;19924;-70
2023/03/26 09:21:20;;;;;;;13.32;3.15;;;11.10;99.90;;;;;;5130461;27;20206;-73
2023/03/26 09:23:47;;;;;;;9.52;2.30;;;10.90;99.90;;;;;;5085435;28;20023;-76
2023/03/26 09:26:43;;;;;;;10.85;2.08;;;10.80;99.90;;;;;;5101819;27;20109;-73
2023/03/26 09:29:58;;;;;;;13.13;2.28;;;10.70;99.90;;;;;;5085936;28;20028;-75
2023/03/26 09:32:57;;;;;;;9.05;1.90;;;10.50;99.90;;;;;;5079867;28;20024;-73
2023/03/26 09:36:19;;;;;;;13.75;2.47;;;10.40;99.90;;;;;;5109896;28;20058;-74
2023/03/26 09:38:50;;;;;;;10.23;2.75;;;10.30;99.90;;;;;;5065372;28;20115;-75
2023/03/26 09:41:24;;;;;;;9.38;2.60;;;10.30;99.90;;;;;;5122728;27;20035;-77
2023/03/26 09:44:11;;;;;;;10.15;2.28;;;10.20;99.90;;;;;;5095868;28;20051;-77
2023/03/26 09:46:55;;;;;;;12.57;3.08;;;9.90;99.90;;;;;;5099316;28;20047;-72
2023/03/26 09:49:27;;;;;;;9.23;2.25;;;9.80;99.90;;;;;;5095748;28;20043;-74
2023/03/26 09:52:12;;;;;;;10.45;2.10;;;9.70;99.90;;;;;;5083720;28;20081;-73
2023/03/26 09:54:39;;;;;;;7.75;2.20;;;9.60;99.90;;;;;;5101259;28;20671;-73
2023/03/26 10:01:09;;;;;;;13.85;2.83;;;9.60;99.90;;;;;;5011919;28;20383;-72
2023/03/26 10:03:57;;;;;;;12.40;2.00;;;9.50;99.90;;;;;;5062666;28;20297;-77
2023/03/26 10:06:43;;;;;;;9.82;1.60;;;9.40;99.90;;;;;;5073800;28;20036;-72
2023/03/26 10:09:47;;;;;;;8.30;2.08;;;9.40;99.90;;;;;;5098922;28;20059;-75
2023/03/26 10:12:37;;;;;;;4.70;1.42;;;9.60;99.90;;;;;;5066420;28;20039;-77
2023/03/26 10:15:18;;;;;;;10.07;2.08;;;9.50;99.90;;;;;;5109461;28;20317;-72
2023/03/26 10:17:47;;;;;;;11.95;2.60;;;9.40;99.90;;;;;;5105081;28;20229;-72
2023/03/26 10:20:41;;;;;;;14.10;2.42;;;9.40;99.90;;;;;;5079882;28;20028;-71
2023/03/26 10:23:44;;;;;;;8.10;2.42;;;9.40;99.90;;;;;;5094560;28;20032;-73
2023/03/26 10:26:13;;;;;;;10.55;2.33;;;9.60;99.90;;;;;;5099703;28;20207;-73
2023/03/26 10:28:41;;;;;;;9.90;2.53;;;9.80;99.90;;;;;;5073297;28;20063;-76
2023/03/26 10:31:33;;;;;;;9.07;2.03;;;9.60;99.90;;;;;;5099238;28;20095;-74
2023/03/26 10:34:42;;;;;;;7.75;2.10;;;9.70;99.90;;;;;;5094744;28;20450;-73
2023/03/26 10:37:26;;;;;;;4.20;1.42;;;9.70;99.90;;;;;;5086985;28;20035;-72
2023/03/26 10:40:20;;;;;;;9.48;2.05;;;9.10;99.90;;;;;;5080001;28;20066;-73
2023/03/26 10:43:25;;;;;;;10.95;2.92;;;9.70;99.90;;;;;;5115088;28;20410;-73
2023/03/26 10:45:54;;;;;;;9.45;2.30;;;9.80;99.90;;;;;;5133511;27;20090;-71
2023/03/26 10:48:40;;;;;;;7.68;2.10;;;9.70;99.90;;;;;;5092262;28;20073;-73
2023/03/26 10:51:18;;;;;;;6.65;2.05;;;9.90;99.90;;;;;;5098033;28;20040;-74
2023/03/26 10:53:52;;;;;;;11.93;2.40;;;10.00;99.90;;;;;;5090706;28;20214;-73
2023/03/26 10:56:56;;;;;;;9.05;2.35;;;9.90;99.90;;;;;;5081890;28;20036;-74
2023/03/26 10:59:29;;;;;;;7.22;1.52;;;9.80;99.90;;;;;;5045710;28;20210;-76
2023/03/26 11:05:20;;;;;;;7.47;2.10;;;10.60;96.90;;;;;;5076931;28;21725;-74
2023/03/26 11:08:19;;;;;;;6.10;1.85;;;10.90;99.90;;;;;;5075224;28;20032;-71
2023/03/26 11:11:14;;;;;;;6.47;1.60;;;10.30;93.80;;;;;;5085643;28;20108;-73
2023/03/26 11:14:08;;;;;;;6.38;2.38;;;10.00;91.50;;;;;;5077287;28;20040;-73
2023/03/26 11:17:15;;;;;;;9.73;1.77;;;9.80;72.80;;;;;;5094157;28;21273;-72
2023/03/26 11:20:02;;;;;;;6.95;1.85;;;10.00;75.80;;;;;;5080027;28;20681;-73
2023/03/26 11:22:34;;;;;;;12.35;1.90;;;10.10;99.90;;;;;;5097938;28;20051;-76
2023/03/26 11:25:32;;;;;;;5.97;1.80;;;9.90;88.60;;;;;;5097317;28;20216;-73
2023/03/26 11:28:51;;;;;;;6.53;1.90;;;10.00;85.20;;;;;;5118860;27;20051;-76
2023/03/26 11:31:40;;;;;;;11.07;2.08;;;10.00;98.10;;;;;;5018653;28;20049;-74
2023/03/26 11:34:15;;;;;;;6.28;1.98;;;9.90;99.90;;;;;;4984902;28;20088;-74
2023/03/26 11:36:52;;;;;;;10.88;2.40;;;9.80;99.90;;;;;;5081975;28;20080;-73
2023/03/26 11:39:24;;;;;;;9.35;2.00;;;9.70;99.90;;;;;;5080235;28;20093;-74
2023/03/26 11:41:56;;;;;;;6.07;1.77;;;9.70;99.90;;;;;;5080839;28;20358;-74
2023/03/26 11:44:36;;;;;;;8.25;1.98;;;9.70;99.90;;;;;;5085353;28;20123;-74
2023/03/26 11:47:08;;;;;;;7.13;2.08;;;9.70;99.90;;;;;;5088949;28;20027;-75
2023/03/26 11:49:35;;;;;;;4.28;1.65;;;9.70;99.90;;;;;;5099363;28;20085;-73
2023/03/26 11:52:02;;;;;;;8.93;1.83;;;9.70;99.90;;;;;;5099154;28;20071;-71
2023/03/26 11:54:28;;;;;;;4.63;1.58;;;9.60;94.00;;;;;;5086584;28;20294;-71
2023/03/26 11:56:54;;;;;;;9.25;1.90;;;9.60;99.60;;;;;;5116217;28;20028;-74
2023/03/26 11:59:32;;;;;;;22.10;2.40;;;9.70;94.00;;;;;;5090273;28;20037;-75
2023/03/26 12:02:04;;;;;;;9.05;1.85;;;9.60;61.90;;;;;;5076923;28;20024;-74
2023/03/26 12:04:34;;;;;;;6.53;2.05;;;9.80;70.40;;;;;;5094231;28;20128;-73
2023/03/26 12:07:24;;;;;;;8.27;1.90;;;10.40;79.50;;;;;;5083250;28;20063;-73
2023/03/26 12:10:21;;;;;;;7.78;1.70;;;10.40;83.50;;;;;;5125027;27;20098;-72
2023/03/26 12:12:47;;;;;;;8.68;2.30;;;10.30;99.90;;;;;;5064211;28;20040;-75
2023/03/26 12:15:14;;;;;;;6.45;1.90;;;10.00;92.40;;;;;;5086521;28;20029;-76
2023/03/26 12:18:00;;;;;;;10.32;2.40;;;10.10;99.90;;;;;;5127415;27;20377;-76
2023/03/26 12:20:38;;;;;;;6.95;1.67;;;11.20;99.90;;;;;;5080607;28;20095;-75
2023/03/26 12:23:24;;;;;;;8.63;2.03;;;9.80;98.80;;;;;;5075810;28;20020;-73
2023/03/26 12:26:17;;;;;;;8.63;1.90;;;9.80;99.90;;;;;;5067702;28;20068;-75
2023/03/26 12:28:55;;;;;;;6.38;1.80;;;9.80;91.40;;;;;;5082095;28;20035;-74
2023/03/26 12:31:46;;;;;;;6.22;1.70;;;9.50;70.40;;;;;;5092494;28;20028;-74
2023/03/26 12:34:15;;;;;;;10.40;2.10;;;9.60;97.10;;;;;;5075539;28;20103;-75
2023/03/26 12:36:55;;;;;;;8.02;2.15;;;9.70;99.90;;;;;;5082185;28;20415;-73
2023/03/26 12:39:42;;;;;;;5.68;1.45;;;9.70;94.10;;;;;;5080118;28;20055;-72
2023/03/26 12:42:25;;;;;;;6.88;1.35;;;9.60;88.90;;;;;;5071265;28;20036;-74
2023/03/26 12:44:54;;;;;;;4.90;1.38;;;9.50;91.00;;;;;;5080402;28;20217;-75
2023/03/26 12:47:24;;;;;;;7.88;1.83;;;9.70;97.30;;;;;;5091799;28;20461;-71
2023/03/26 12:50:16;;;;;;;6.47;1.60;;;10.40;94.80;;;;;;5098296;28;20056;-74
2023/03/26 12:53:01;;;;;;;5.78;1.80;;;10.10;57.90;;;;;;5079248;28;20089;-74
2023/03/26 12:55:41;;;;;;;8.40;2.13;;;10.10;92.40;;;;;;5074456;28;20055;-74
2023/03/26 12:58:32;;;;;;;12.00;1.55;;;9.70;99.90;;;;;;5098962;28;20046;-73
2023/03/26 13:01:01;;;;;;;11.18;2.25;;;9.80;99.90;;;;;;5088996;28;20066;-76
2023/03/26 13:04:00;;;;;;;7.97;1.83;;;9.60;99.90;;;;;;5093820;28;20040;-71
2023/03/26 13:06:52;;;;;;;7.72;1.77;;;9.70;99.90;;;;;;5081280;28;20028;-74
2023/03/26 13:09:24;;;;;;;8.20;1.70;;;9.50;99.90;;;;;;5081857;28;20369;-76
2023/03/26 13:12:03;;;;;;;9.35;2.58;;;9.40;88.30;;;;;;5081332;28;20036;-74
2023/03/26 13:14:46;;;;;;;6.55;1.63;;;9.60;57.80;;;;;;5096182;28;20051;-73
2023/03/26 13:17:33;;;;;;;7.32;1.58;;;9.60;18.30;;;;;;5094117;28;20059;-74
2023/03/26 13:20:35;;;;;;;6.68;1.73;;;10.00;17.30;;;;;;5098151;28;20059;-73
2023/03/26 13:23:26;;;;;;;8.63;1.73;;;9.90;25.20;;;;;;5073491;28;20027;-76
2023/03/26 13:26:25;;;;;;;9.57;1.90;;;10.00;52.70;;;;;;5081544;28;20024;-76
2023/03/26 13:29:22;;;;;;;8.65;2.00;;;9.90;73.70;;;;;;5097938;28;20043;-72
2023/03/26 13:32:12;;;;;;;13.23;2.05;;;9.70;87.90;;;;;;5097555;28;20044;-75
2023/03/26 13:35:16;;;;;;;6.63;1.67;;;9.70;97.60;;;;;;5095307;28;20028;-76
2023/03/26 13:38:09;;;;;;;5.30;1.48;;;9.40;93.20;;;;;;5033017;28;20041;-76
2023/03/26 13:41:00;;;;;;;6.10;1.75;;;9.50;99.90;;;;;;5018432;28;20040;-74
2023/03/26 13:44:13;;;;;;;6.72;1.60;;;9.40;99.90;;;;;;5077072;28;20131;-77
2023/03/26 13:46:43;;;;;;;3.47;1.42;;;9.40;75.10;;;;;;5089943;28;20040;-74
2023/03/26 13:49:15;;;;;;;6.00;1.63;;;9.20;57.50;;;;;;5097831;28;20052;-74
2023/03/26 13:52:09;;;;;;;4.88;2.03;;;9.20;74.60;;;;;;5091707;28;20047;-72
2023/03/26 13:54:44;;;;;;;6.88;1.80;;;9.30;43.50;;;;;;5120062;27;20055;-72
2023/03/26 14:01:11;;;;;;;8.88;1.42;;;10.10;69.60;;;;;;5055170;28;20031;-72
2023/03/26 14:04:04;;;;;;;6.93;1.42;;;9.80;79.40;;;;;;5070325;28;20251;-72
2023/03/26 14:06:45;;;;;;;7.88;2.08;;;9.60;87.10;;;;;;5091887;28;20036;-72